Time;durP1;ratioP1;P1;durP2;ratioP2;P2;SDS_P1;SDS_P2;PMS_P1;PMS_P2;Temp;Humidity;BMP_temperature;BMP_pressure;BME280_temperature;BME280_humidity;BME280_pressure;Samples;Min_cycle;Max_cycle;Signal;HPM_P1;HPM_P2
2023/06/16 00:01:23;;;;;;;6.47;3.08;;;21.40;53.00;;;;;;4989225;28;20030;-83
2023/06/16 00:03:51;;;;;;;7.43;3.55;;;21.40;53.00;;;;;;4990359;28;20087;-83
2023/06/16 00:06:19;;;;;;;5.60;3.15;;;21.30;52.90;;;;;;4991584;28;20124;-80
2023/06/16 00:08:51;;;;;;;11.02;3.40;;;21.30;53.00;;;;;;4991037;28;20478;-82
2023/06/16 00:11:17;;;;;;;6.13;3.20;;;21.30;53.30;;;;;;4989565;28;20038;-82
2023/06/16 00:13:45;;;;;;;7.25;3.40;;;21.30;53.30;;;;;;4990495;28;20023;-82
2023/06/16 00:16:10;;;;;;;6.43;3.33;;;21.20;53.10;;;;;;4989195;28;20038;-82
2023/06/16 00:18:43;;;;;;;6.35;3.35;;;21.20;53.50;;;;;;4991001;28;20030;-83
2023/06/16 00:21:09;;;;;;;8.45;3.50;;;21.20;53.50;;;;;;4996742;28;20459;-82
2023/06/16 00:23:36;;;;;;;7.28;3.78;;;21.20;54.40;;;;;;5004956;28;20033;-83
2023/06/16 00:26:02;;;;;;;7.10;3.60;;;21.20;54.10;;;;;;5010860;28;20027;-83
2023/06/16 00:28:28;;;;;;;5.60;2.97;;;21.20;54.00;;;;;;5010595;28;20054;-82
2023/06/16 00:30:53;;;;;;;5.93;3.45;;;21.10;54.40;;;;;;5010811;28;20026;-82
2023/06/16 00:33:19;;;;;;;5.55;2.92;;;21.00;54.20;;;;;;4995270;28;20037;-81
2023/06/16 00:35:45;;;;;;;6.82;3.20;;;21.00;54.10;;;;;;5006297;28;20023;-82
2023/06/16 00:38:10;;;;;;;4.90;2.38;;;20.90;54.10;;;;;;4975143;28;20057;-82
2023/06/16 00:40:36;;;;;;;6.85;3.40;;;20.90;55.30;;;;;;4990619;28;20022;-82
2023/06/16 00:43:02;;;;;;;4.78;2.92;;;20.80;55.40;;;;;;4989840;28;20432;-81
2023/06/16 00:45:29;;;;;;;7.75;3.10;;;20.80;55.70;;;;;;4990041;28;20075;-82
2023/06/16 00:47:55;;;;;;;5.95;3.15;;;20.80;55.00;;;;;;4989937;28;20042;-82
2023/06/16 00:50:23;;;;;;;5.78;2.83;;;20.80;55.00;;;;;;4989955;28;20451;-83
2023/06/16 00:52:49;;;;;;;8.68;3.60;;;20.70;55.40;;;;;;4989007;28;20552;-83
2023/06/16 00:55:15;;;;;;;8.90;3.53;;;20.70;55.50;;;;;;4987137;28;20125;-81
2023/06/16 00:57:41;;;;;;;6.40;2.63;;;20.70;55.30;;;;;;4988237;28;20110;-82
2023/06/16 01:00:11;;;;;;;6.57;3.20;;;20.60;56.00;;;;;;4988390;28;20125;-82
2023/06/16 01:02:37;;;;;;;5.45;3.40;;;20.60;56.20;;;;;;4989340;28;20063;-80
2023/06/16 01:05:03;;;;;;;8.68;3.45;;;20.60;55.80;;;;;;4988930;28;20103;-82
2023/06/16 01:07:41;;;;;;;9.27;3.03;;;20.60;55.90;;;;;;4987630;28;20725;-83
2023/06/16 01:10:30;;;;;;;6.28;3.15;;;20.50;55.60;;;;;;4987967;28;20068;-82
2023/06/16 01:13:11;;;;;;;7.50;3.63;;;20.50;55.80;;;;;;4989522;28;20497;-83
2023/06/16 01:15:39;;;;;;;5.68;3.75;;;20.50;55.90;;;;;;4988869;28;20235;-83
2023/06/16 01:18:07;;;;;;;6.97;3.97;;;20.50;56.10;;;;;;4990589;28;20057;-82
2023/06/16 01:20:42;;;;;;;8.38;3.60;;;20.40;56.10;;;;;;4989346;28;20038;-82
2023/06/16 01:23:20;;;;;;;9.55;3.80;;;20.40;56.20;;;;;;4990615;28;20471;-83
2023/06/16 01:25:48;;;;;;;6.35;3.70;;;20.40;56.50;;;;;;4990101;28;20026;-83
2023/06/16 01:28:18;;;;;;;8.57;3.33;;;20.40;56.30;;;;;;4988940;28;20457;-82
2023/06/16 01:30:45;;;;;;;;;;;20.40;56.50;;;;;;4989734;28;20054;-84
2023/06/16 01:33:13;;;;;;;6.70;3.92;;;20.40;56.50;;;;;;4988194;28;19940;-84
2023/06/16 01:35:42;;;;;;;7.38;4.10;;;20.30;56.60;;;;;;4989532;28;20424;-84
2023/06/16 01:38:08;;;;;;;8.50;3.22;;;20.40;56.90;;;;;;4988723;28;20034;-83
2023/06/16 01:40:35;;;;;;;8.02;3.30;;;20.30;56.90;;;;;;4988656;28;20023;-81
2023/06/16 01:43:02;;;;;;;6.47;3.22;;;20.30;57.00;;;;;;4988263;28;20027;-82
2023/06/16 01:45:29;;;;;;;7.57;3.55;;;20.30;57.00;;;;;;4988936;28;20026;-82
2023/06/16 01:47:55;;;;;;;8.35;3.45;;;20.30;57.00;;;;;;4988725;28;20520;-82
2023/06/16 01:50:21;;;;;;;6.82;3.30;;;20.20;57.20;;;;;;4989227;28;20109;-81
2023/06/16 01:52:47;;;;;;;5.40;3.15;;;20.20;57.10;;;;;;4988882;28;20038;-80
2023/06/16 01:55:12;;;;;;;5.93;3.55;;;20.20;57.10;;;;;;4990031;28;20028;-83
2023/06/16 01:57:38;;;;;;;6.88;3.40;;;20.10;57.20;;;;;;4993845;28;20469;-82
2023/06/16 02:00:08;;;;;;;7.50;3.95;;;20.20;57.30;;;;;;4988805;28;20079;-80
2023/06/16 02:02:36;;;;;;;5.70;3.08;;;20.10;57.40;;;;;;4988558;28;20027;-81
2023/06/16 02:05:03;;;;;;;5.45;2.97;;;20.00;57.50;;;;;;4987026;28;20034;-80
2023/06/16 02:07:36;;;;;;;7.72;3.75;;;20.00;57.70;;;;;;4988575;28;20058;-79
2023/06/16 02:10:03;;;;;;;7.93;4.05;;;19.90;57.90;;;;;;4988116;28;20079;-81
2023/06/16 02:12:30;;;;;;;6.00;3.40;;;19.90;58.20;;;;;;4991008;28;20423;-81
2023/06/16 02:14:56;;;;;;;6.30;3.35;;;19.80;58.40;;;;;;4989925;28;20371;-82
2023/06/16 02:17:28;;;;;;;5.93;3.47;;;19.70;58.50;;;;;;4991730;28;20470;-80
2023/06/16 02:19:55;;;;;;;7.78;3.85;;;19.70;58.70;;;;;;4991514;28;20037;-83
2023/06/16 02:22:21;;;;;;;6.35;3.50;;;19.60;59.00;;;;;;5038466;28;20030;-81
2023/06/16 02:24:47;;;;;;;9.27;3.95;;;19.60;59.50;;;;;;5012874;28;20027;-81
2023/06/16 02:27:13;;;;;;;6.20;4.00;;;19.50;59.70;;;;;;4991628;28;20037;-82
2023/06/16 02:29:40;;;;;;;10.50;3.58;;;19.50;59.60;;;;;;4991789;28;20490;-81
2023/06/16 02:32:06;;;;;;;6.28;3.80;;;19.50;59.70;;;;;;4991418;28;20033;-81
2023/06/16 02:34:32;;;;;;;6.35;3.70;;;19.40;59.90;;;;;;4995939;28;20022;-82
2023/06/16 02:36:58;;;;;;;9.27;4.30;;;19.40;60.00;;;;;;4995794;28;20080;-80
2023/06/16 02:39:24;;;;;;;10.70;4.18;;;19.40;60.10;;;;;;4994090;28;20560;-82
2023/06/16 02:41:50;;;;;;;7.47;4.13;;;19.40;60.30;;;;;;4994485;28;20031;-80
2023/06/16 02:44:17;;;;;;;6.78;4.25;;;19.40;60.30;;;;;;4992299;28;20034;-80
2023/06/16 02:46:42;;;;;;;9.15;3.63;;;19.40;61.00;;;;;;4993998;28;20022;-80
2023/06/16 02:49:08;;;;;;;8.70;4.53;;;19.30;61.00;;;;;;4993768;28;20116;-82
2023/06/16 02:51:34;;;;;;;7.82;3.88;;;19.30;60.80;;;;;;4992446;28;20030;-82
2023/06/16 02:54:02;;;;;;;8.02;3.70;;;19.30;60.80;;;;;;4993179;28;20033;-81
2023/06/16 02:56:28;;;;;;;7.72;4.47;;;19.30;61.00;;;;;;4990630;28;20034;-82
2023/06/16 02:58:55;;;;;;;6.70;3.58;;;19.20;61.20;;;;;;4991308;28;20041;-81
2023/06/16 03:01:21;;;;;;;6.68;4.00;;;19.20;61.10;;;;;;4987408;28;20027;-82
2023/06/16 03:03:48;;;;;;;6.30;3.55;;;19.20;61.20;;;;;;4987994;28;20129;-80
2023/06/16 03:06:16;;;;;;;8.35;4.03;;;19.20;61.50;;;;;;4996626;28;20791;-82
2023/06/16 03:08:42;;;;;;;7.57;3.75;;;19.20;61.40;;;;;;5002780;28;20018;-82
2023/06/16 03:11:07;;;;;;;10.82;4.85;;;19.20;61.50;;;;;;5006293;28;20094;-81
2023/06/16 03:13:34;;;;;;;7.93;4.43;;;19.20;61.60;;;;;;4997789;28;20018;-82
2023/06/16 03:16:00;;;;;;;9.57;4.45;;;19.20;61.90;;;;;;4996284;28;20030;-82
2023/06/16 03:18:27;;;;;;;8.68;4.93;;;19.20;61.70;;;;;;4995665;28;20026;-84
2023/06/16 03:20:53;;;;;;;11.32;4.60;;;19.10;61.70;;;;;;4992091;28;20034;-83
2023/06/16 03:23:19;;;;;;;8.48;4.32;;;19.20;61.80;;;;;;4990446;28;20747;-83
2023/06/16 03:25:45;;;;;;;10.65;4.55;;;19.20;62.10;;;;;;4988723;28;20094;-84
2023/06/16 03:28:10;;;;;;;9.43;4.38;;;19.10;62.30;;;;;;4991397;28;20045;-83
2023/06/16 03:30:36;;;;;;;8.50;4.25;;;19.10;62.20;;;;;;4991879;28;20430;-84
2023/06/16 03:33:02;;;;;;;8.43;4.22;;;19.10;62.20;;;;;;4991098;28;20027;-82
2023/06/16 03:35:27;;;;;;;9.60;4.47;;;19.00;62.70;;;;;;4991280;28;20026;-83
2023/06/16 03:37:53;;;;;;;8.95;4.35;;;19.00;63.10;;;;;;4991598;28;20106;-83
2023/06/16 03:40:18;;;;;;;6.22;3.63;;;18.90;63.50;;;;;;4990748;28;20137;-85
2023/06/16 03:42:44;;;;;;;7.85;4.50;;;18.90;63.60;;;;;;4991509;28;20084;-82
2023/06/16 03:45:16;;;;;;;8.48;4.32;;;18.80;63.90;;;;;;4990314;28;20030;-82
2023/06/16 03:47:41;;;;;;;8.98;4.68;;;18.80;64.10;;;;;;4991558;28;20811;-83
2023/06/16 03:50:07;;;;;;;12.45;4.95;;;18.70;64.20;;;;;;4991928;28;20038;-84
2023/06/16 03:52:33;;;;;;;6.90;4.18;;;18.70;64.40;;;;;;4991988;28;20026;-84
2023/06/16 03:54:58;;;;;;;10.35;4.90;;;18.70;64.80;;;;;;4990103;28;20026;-82
2023/06/16 03:57:24;;;;;;;9.05;3.85;;;18.70;64.90;;;;;;4990559;28;20482;-80
2023/06/16 03:59:50;;;;;;;8.25;3.90;;;18.70;65.10;;;;;;4990740;28;20035;-82
2023/06/16 04:02:16;;;;;;;6.22;3.92;;;18.80;65.40;;;;;;4990279;28;20034;-83
2023/06/16 04:04:45;;;;;;;7.60;4.13;;;18.70;64.90;;;;;;4991421;28;20715;-83
2023/06/16 04:07:11;;;;;;;7.43;4.32;;;18.70;65.00;;;;;;4976191;28;20038;-81
2023/06/16 04:09:38;;;;;;;8.50;5.07;;;18.70;64.60;;;;;;4990533;28;20037;-80
2023/06/16 04:12:05;;;;;;;8.10;4.13;;;18.70;64.20;;;;;;4991295;28;20054;-82
2023/06/16 04:14:31;;;;;;;7.22;3.70;;;18.70;64.50;;;;;;4991959;28;20019;-80
2023/06/16 04:16:56;;;;;;;6.15;3.80;;;18.80;64.50;;;;;;4991894;28;20401;-80
2023/06/16 04:19:22;;;;;;;8.20;4.40;;;18.80;64.60;;;;;;4990867;28;20065;-81
2023/06/16 04:21:48;;;;;;;9.48;4.68;;;18.80;64.60;;;;;;4990987;28;20035;-82
2023/06/16 04:24:17;;;;;;;7.50;4.75;;;18.80;64.40;;;;;;4988917;28;20023;-82
2023/06/16 04:26:43;;;;;;;13.15;4.95;;;18.80;64.70;;;;;;4990354;28;20029;-82
2023/06/16 04:29:14;;;;;;;9.65;4.68;;;18.80;64.90;;;;;;4989714;28;20679;-81
2023/06/16 04:31:42;;;;;;;8.35;4.35;;;18.80;64.90;;;;;;4989585;28;20026;-81
2023/06/16 04:34:10;;;;;;;11.23;4.85;;;18.80;64.80;;;;;;4991807;28;20057;-81
2023/06/16 04:36:36;;;;;;;10.43;5.07;;;18.80;64.60;;;;;;4991307;28;20022;-82
2023/06/16 04:39:03;;;;;;;9.43;5.15;;;18.70;64.70;;;;;;4991615;28;20042;-81
2023/06/16 04:41:29;;;;;;;8.60;5.05;;;18.70;64.90;;;;;;4990823;28;20022;-80
2023/06/16 04:43:54;;;;;;;9.43;5.00;;;18.70;64.90;;;;;;4989971;28;20018;-81
2023/06/16 04:46:21;;;;;;;7.22;5.00;;;18.70;65.00;;;;;;4989760;28;20019;-83
2023/06/16 04:48:47;;;;;;;8.48;4.68;;;18.70;65.00;;;;;;4991929;28;20103;-82
2023/06/16 04:51:13;;;;;;;10.00;5.45;;;18.70;64.80;;;;;;4993356;28;20021;-82
2023/06/16 04:53:38;;;;;;;7.80;4.47;;;18.70;64.90;;;;;;4992128;28;20102;-84
2023/06/16 04:56:04;;;;;;;8.52;4.60;;;18.70;65.30;;;;;;4993330;28;20048;-82
2023/06/16 04:58:30;;;;;;;9.25;5.18;;;18.80;65.40;;;;;;4991761;28;20038;-82
2023/06/16 05:00:55;;;;;;;7.55;4.63;;;18.80;65.70;;;;;;4992725;28;20057;-82
2023/06/16 05:03:21;;;;;;;6.43;4.50;;;18.90;65.20;;;;;;4992465;28;20057;-83
2023/06/16 05:05:47;;;;;;;9.13;4.65;;;19.00;65.10;;;;;;4992567;28;20413;-81
2023/06/16 05:08:12;;;;;;;8.35;4.88;;;19.00;65.00;;;;;;4991274;28;20042;-82
2023/06/16 05:10:39;;;;;;;8.75;5.07;;;19.10;64.60;;;;;;4990186;28;20030;-81
2023/06/16 05:13:04;;;;;;;8.88;4.38;;;19.10;64.90;;;;;;4991177;28;20422;-80
2023/06/16 05:15:30;;;;;;;8.73;4.88;;;19.10;65.00;;;;;;4988076;28;20034;-81
2023/06/16 05:17:56;;;;;;;8.85;4.68;;;19.10;65.10;;;;;;4996060;28;20069;-79
2023/06/16 05:20:21;;;;;;;9.55;4.28;;;19.20;65.20;;;;;;4996857;28;20035;-79
2023/06/16 05:22:48;;;;;;;7.90;4.22;;;19.20;65.00;;;;;;4993080;28;20031;-78
2023/06/16 05:25:13;;;;;;;8.02;3.35;;;19.20;64.80;;;;;;4989664;28;20083;-81
2023/06/16 05:27:39;;;;;;;6.80;4.05;;;19.20;64.70;;;;;;4991333;28;20023;-80
2023/06/16 05:30:05;;;;;;;8.70;5.00;;;19.20;64.80;;;;;;4990173;28;20053;-81
2023/06/16 05:32:31;;;;;;;8.48;3.58;;;19.30;64.70;;;;;;4989487;28;20096;-78
2023/06/16 05:34:57;;;;;;;8.32;4.00;;;19.40;64.30;;;;;;4990145;28;20362;-83
2023/06/16 05:37:22;;;;;;;7.82;4.13;;;19.50;64.20;;;;;;5001656;28;20479;-79
2023/06/16 05:39:49;;;;;;;9.15;4.22;;;19.60;63.80;;;;;;5003091;28;20045;-82
2023/06/16 05:42:16;;;;;;;6.97;4.15;;;19.60;63.60;;;;;;5003211;28;20114;-81
2023/06/16 05:44:42;;;;;;;7.47;4.22;;;19.80;63.60;;;;;;5000564;28;20113;-79
2023/06/16 05:47:08;;;;;;;7.93;3.10;;;19.90;63.90;;;;;;5003675;28;20053;-79
2023/06/16 05:49:34;;;;;;;5.20;2.42;;;19.90;63.70;;;;;;5003616;28;20050;-80
2023/06/16 05:52:02;;;;;;;6.93;3.58;;;20.00;62.80;;;;;;4988006;28;20079;-79
2023/06/16 05:54:28;;;;;;;6.78;3.50;;;20.20;62.50;;;;;;4987490;28;20023;-80
2023/06/16 05:56:55;;;;;;;6.40;3.28;;;20.20;62.30;;;;;;4987187;28;20385;-81
2023/06/16 05:59:21;;;;;;;8.07;3.72;;;20.30;62.30;;;;;;4988270;28;20038;-78
2023/06/16 06:01:49;;;;;;;8.95;4.72;;;20.40;61.90;;;;;;4991450;28;20031;-79
2023/06/16 06:04:14;;;;;;;9.45;4.20;;;20.50;61.30;;;;;;4987155;28;20025;-80
2023/06/16 06:06:40;;;;;;;7.60;3.80;;;20.60;61.40;;;;;;4984134;28;20038;-79
2023/06/16 06:09:06;;;;;;;6.82;3.33;;;20.70;61.30;;;;;;4985915;28;20019;-80
2023/06/16 06:11:31;;;;;;;8.77;3.92;;;20.80;61.10;;;;;;4987144;28;20026;-80
2023/06/16 06:13:57;;;;;;;9.50;3.30;;;21.00;61.10;;;;;;4987991;28;20023;-81
2023/06/16 06:16:23;;;;;;;7.10;3.67;;;21.10;60.80;;;;;;4988591;28;20018;-79
2023/06/16 06:18:49;;;;;;;7.53;3.58;;;21.30;59.70;;;;;;4989113;28;20084;-82
2023/06/16 06:21:15;;;;;;;8.23;3.35;;;21.40;59.20;;;;;;4987528;28;20420;-80
2023/06/16 06:23:47;;;;;;;7.43;3.63;;;21.60;59.10;;;;;;4987165;28;20150;-82
2023/06/16 06:26:13;;;;;;;7.43;4.00;;;21.70;58.80;;;;;;4986626;28;20015;-82
2023/06/16 06:28:39;;;;;;;8.02;3.75;;;21.90;58.50;;;;;;4985719;28;20019;-81
2023/06/16 06:31:04;;;;;;;5.55;2.97;;;21.90;59.60;;;;;;4987414;28;20026;-80
2023/06/16 06:33:39;;;;;;;7.95;3.08;;;22.10;59.50;;;;;;4984344;28;20148;-80
2023/06/16 06:36:05;;;;;;;5.55;2.22;;;22.20;59.00;;;;;;4985860;28;20072;-80
2023/06/16 06:38:31;;;;;;;7.43;3.10;;;22.30;58.90;;;;;;4988549;28;20061;-81
2023/06/16 06:40:56;;;;;;;13.25;3.00;;;22.30;58.80;;;;;;4983340;28;20037;-76
2023/06/16 06:43:22;;;;;;;9.35;3.03;;;22.60;59.10;;;;;;4984321;28;20886;-79
2023/06/16 06:45:48;;;;;;;8.20;2.40;;;23.10;58.50;;;;;;4986419;28;20599;-79
2023/06/16 06:48:14;;;;;;;6.32;2.58;;;23.50;57.60;;;;;;4983988;28;20142;-78
2023/06/16 06:50:40;;;;;;;4.95;2.10;;;23.90;57.00;;;;;;4984724;28;20022;-77
2023/06/16 06:53:05;;;;;;;6.20;2.70;;;24.20;56.30;;;;;;4985021;28;20032;-79
2023/06/16 06:55:31;;;;;;;8.30;2.50;;;24.40;55.70;;;;;;4985566;28;20026;-79
2023/06/16 06:57:57;;;;;;;7.10;2.67;;;24.60;55.60;;;;;;4986636;28;20088;-78
2023/06/16 07:00:22;;;;;;;10.65;3.40;;;24.70;54.90;;;;;;4986544;28;20038;-77
2023/06/16 07:02:48;;;;;;;9.65;3.60;;;24.90;54.50;;;;;;4990650;28;20113;-79
2023/06/16 07:05:14;;;;;;;7.63;3.25;;;25.00;54.20;;;;;;4989352;28;20031;-79
2023/06/16 07:07:40;;;;;;;6.63;2.55;;;25.10;54.30;;;;;;4989522;28;20033;-78
2023/06/16 07:10:08;;;;;;;12.07;3.65;;;25.20;54.20;;;;;;4989958;28;20026;-77
2023/06/16 07:12:34;;;;;;;7.25;3.08;;;25.20;53.90;;;;;;4991858;28;20473;-78
2023/06/16 07:14:59;;;;;;;6.63;2.50;;;25.30;53.60;;;;;;4997162;28;20035;-78
2023/06/16 07:17:25;;;;;;;5.05;2.88;;;25.30;53.10;;;;;;4989752;28;20030;-77
2023/06/16 07:19:51;;;;;;;5.18;2.83;;;25.40;53.60;;;;;;4986150;28;20034;-77
2023/06/16 07:22:16;;;;;;;7.90;3.65;;;25.50;53.30;;;;;;4987089;28;20027;-77
2023/06/16 07:24:42;;;;;;;6.40;2.90;;;25.40;53.40;;;;;;4989985;28;20063;-77
2023/06/16 07:27:08;;;;;;;4.47;2.53;;;25.40;52.30;;;;;;4988131;28;20061;-78
2023/06/16 07:29:34;;;;;;;10.25;3.00;;;25.50;53.00;;;;;;4988620;28;20489;-79
2023/06/16 07:32:00;;;;;;;4.35;2.50;;;25.60;52.60;;;;;;4988328;28;20031;-80
2023/06/16 07:34:26;;;;;;;6.30;3.50;;;25.60;52.60;;;;;;4989876;28;20413;-79
2023/06/16 07:36:51;;;;;;;9.98;2.92;;;25.60;50.20;;;;;;4991510;28;20114;-79
2023/06/16 07:39:18;;;;;;;5.63;2.80;;;25.60;52.40;;;;;;4985762;28;20065;-78
2023/06/16 07:41:43;;;;;;;4.40;2.50;;;25.70;52.50;;;;;;4985856;28;20026;-78
2023/06/16 07:44:09;;;;;;;7.00;2.58;;;25.70;52.50;;;;;;4988109;28;20026;-78
2023/06/16 07:46:35;;;;;;;9.98;3.60;;;25.80;52.50;;;;;;4986752;28;20117;-77
2023/06/16 07:49:00;;;;;;;7.60;3.22;;;25.90;51.10;;;;;;4985325;28;20039;-78
2023/06/16 07:51:26;;;;;;;6.15;3.25;;;25.90;50.60;;;;;;4987841;28;20480;-79
2023/06/16 07:53:52;;;;;;;4.25;2.40;;;25.80;50.50;;;;;;4986950;28;20014;-78
2023/06/16 07:56:18;;;;;;;5.88;2.85;;;25.80;51.40;;;;;;4987379;28;20119;-80
2023/06/16 07:58:44;;;;;;;7.05;2.90;;;25.80;51.00;;;;;;4988622;28;20532;-79
2023/06/16 08:01:10;;;;;;;6.53;2.72;;;25.90;51.40;;;;;;4985422;28;20039;-77
2023/06/16 08:03:36;;;;;;;5.40;3.05;;;25.90;49.80;;;;;;4988106;28;20022;-79
2023/06/16 08:06:03;;;;;;;9.30;3.22;;;25.90;51.50;;;;;;4987317;28;20068;-80
2023/06/16 08:08:28;;;;;;;7.28;3.33;;;26.00;51.30;;;;;;4985133;28;20105;-79
2023/06/16 08:10:57;;;;;;;5.50;2.80;;;26.20;49.90;;;;;;4989181;28;20176;-80
2023/06/16 08:13:23;;;;;;;7.43;2.95;;;26.20;48.20;;;;;;4986624;28;20027;-79
2023/06/16 08:15:49;;;;;;;5.55;3.17;;;26.20;48.80;;;;;;4991389;28;20041;-79
2023/06/16 08:18:17;;;;;;;7.82;3.20;;;26.20;48.60;;;;;;4990979;28;20019;-79
2023/06/16 08:20:44;;;;;;;6.45;2.83;;;26.20;49.40;;;;;;4991418;28;20028;-79
2023/06/16 08:23:10;;;;;;;5.53;3.00;;;26.30;49.40;;;;;;4990071;28;20023;-79
2023/06/16 08:25:36;;;;;;;4.13;2.33;;;26.40;49.40;;;;;;4989643;28;20021;-78
2023/06/16 08:28:03;;;;;;;6.38;2.92;;;26.50;50.10;;;;;;4988742;28;20022;-79
2023/06/16 08:30:29;;;;;;;5.13;3.03;;;26.60;50.60;;;;;;4987317;28;20110;-80
2023/06/16 08:32:55;;;;;;;7.63;3.05;;;26.70;47.10;;;;;;4988363;28;20030;-79
2023/06/16 08:35:21;;;;;;;4.72;3.03;;;26.80;49.60;;;;;;4989658;28;20120;-80
2023/06/16 08:37:47;;;;;;;6.55;2.80;;;26.90;48.80;;;;;;4988660;28;20022;-80
2023/06/16 08:40:13;;;;;;;7.20;3.08;;;27.10;48.60;;;;;;4988162;28;20084;-77
2023/06/16 08:42:40;;;;;;;7.70;3.25;;;27.20;46.50;;;;;;4987842;28;20018;-79
2023/06/16 08:45:07;;;;;;;6.03;3.25;;;27.20;45.30;;;;;;4987132;28;20026;-78
2023/06/16 08:47:34;;;;;;;4.38;2.50;;;27.20;43.60;;;;;;4986695;28;20088;-79
2023/06/16 08:50:00;;;;;;;4.88;2.78;;;27.30;46.00;;;;;;4987409;28;20078;-78
2023/06/16 08:52:28;;;;;;;7.50;3.38;;;27.40;48.60;;;;;;4988022;28;20023;-78
2023/06/16 08:55:01;;;;;;;7.13;3.05;;;27.40;44.90;;;;;;4986336;28;20088;-78
2023/06/16 08:57:30;;;;;;;9.27;2.65;;;27.50;45.10;;;;;;4987866;28;20030;-78
2023/06/16 08:59:57;;;;;;;6.05;2.50;;;27.70;45.40;;;;;;4987218;28;20045;-77
2023/06/16 09:02:25;;;;;;;5.70;2.75;;;27.80;48.30;;;;;;4984954;28;20019;-78
2023/06/16 09:04:53;;;;;;;7.80;3.08;;;28.00;45.90;;;;;;4987885;28;20030;-78
2023/06/16 09:07:20;;;;;;;4.72;2.63;;;;;;;;;;4988301;28;20096;-82
2023/06/16 09:09:46;;;;;;;4.88;2.72;;;;;;;;;;4990381;28;20109;-84
2023/06/16 09:12:12;;;;;;;7.38;3.50;;;;;;;;;;4993979;28;20038;-81
2023/06/16 09:14:39;;;;;;;6.35;3.33;;;;;;;;;;4994619;28;20076;-86
2023/06/16 09:17:07;;;;;;;5.22;3.17;;;;;;;;;;4990139;28;20030;-84
2023/06/16 09:19:36;;;;;;;6.82;3.63;;;;;;;;;;4990499;28;20054;-84
2023/06/16 09:22:03;;;;;;;4.80;2.42;;;;;;;;;;4992655;28;20033;-81
2023/06/16 09:24:29;;;;;;;5.00;3.33;;;;;;;;;;4990774;28;20371;-81
2023/06/16 09:26:59;;;;;;;7.60;3.25;;;;;;;;;;4991715;28;20038;-85
2023/06/16 09:29:26;;;;;;;6.45;3.88;;;;;;;;;;4990970;28;20035;-82
2023/06/16 09:31:53;;;;;;;6.18;3.13;;;;;;;;;;4988806;28;20117;-86
2023/06/16 09:34:19;;;;;;;6.35;3.45;;;;;;;;;;4992364;28;20474;-80
2023/06/16 09:36:45;;;;;;;5.75;2.92;;;;;;;;;;4993504;28;20089;-85
2023/06/16 09:39:24;;;;;;;4.65;2.75;;;;;;;;;;4996869;28;20045;-79
2023/06/16 09:41:50;;;;;;;4.97;2.87;;;;;;;;;;4989676;28;20100;-83
2023/06/16 09:44:16;;;;;;;5.72;3.67;;;;;;;;;;4996000;28;20030;-83
2023/06/16 09:46:44;;;;;;;3.75;2.42;;;;;;;;;;4992880;28;20504;-86
2023/06/16 09:49:26;;;;;;;4.13;2.80;;;;;;;;;;4991039;28;20050;-85
2023/06/16 09:51:57;;;;;;;5.30;2.95;;;;;;;;;;4980791;28;20072;-81
2023/06/16 09:54:24;;;;;;;4.78;2.90;;;;;;;;;;4991705;28;20044;-77
2023/06/16 09:56:51;;;;;;;5.05;3.30;;;;;;;;;;4983872;28;20058;-84
2023/06/16 09:59:18;;;;;;;6.43;3.50;;;;;;;;;;4992310;28;20202;-80
2023/06/16 10:01:47;;;;;;;4.72;3.05;;;;;;;;;;4982280;28;20034;-83
2023/06/16 10:04:14;;;;;;;5.13;2.65;;;;;;;;;;4987712;28;20027;-77
2023/06/16 10:07:00;;;;;;;5.38;3.17;;;;;;;;;;4987344;28;20035;-83
2023/06/16 10:09:29;;;;;;;5.25;3.22;;;;;;;;;;4986375;28;20049;-80
2023/06/16 10:11:56;;;;;;;3.72;2.70;;;;;;;;;;4989137;28;20049;-80
2023/06/16 10:14:27;;;;;;;6.88;3.50;;;;;;;;;;4993469;28;20031;-76
2023/06/16 10:16:54;;;;;;;6.82;3.65;;;;;;;;;;4989068;28;20026;-82
2023/06/16 10:19:22;;;;;;;7.30;3.15;;;;;;;;;;4987643;28;20038;-84
2023/06/16 10:21:50;;;;;;;7.10;3.97;;;;;;;;;;4987365;28;20615;-82
2023/06/16 10:24:16;;;;;;;5.43;3.33;;;;;;;;;;4989116;28;20080;-83
2023/06/16 10:26:42;;;;;;;5.05;3.40;;;;;;;;;;4992657;28;20180;-78
2023/06/16 10:29:09;;;;;;;5.50;3.95;;;;;;;;;;4996157;28;20104;-79
2023/06/16 10:31:36;;;;;;;5.45;3.05;;;;;;;;;;4990816;28;20052;-82
2023/06/16 10:34:16;;;;;;;6.72;4.07;;;;;;;;;;4999813;28;20065;-81
2023/06/16 10:36:43;;;;;;;8.57;3.65;;;;;;;;;;4985543;28;20037;-80
2023/06/16 10:39:12;;;;;;;7.05;2.95;;;;;;;;;;4998584;28;20026;-79
2023/06/16 10:41:58;;;;;;;5.95;3.08;;;;;;;;;;4995468;28;20042;-84
2023/06/16 10:44:24;;;;;;;6.68;3.60;;;;;;;;;;4994926;28;20052;-85
2023/06/16 10:47:10;;;;;;;5.50;3.17;;;;;;;;;;4996898;28;20023;-84
2023/06/16 10:49:51;;;;;;;5.95;4.00;;;;;;;;;;4978408;28;20051;-80
2023/06/16 10:52:30;;;;;;;6.07;2.67;;;;;;;;;;4993500;28;20034;-83
2023/06/16 10:54:59;;;;;;;5.90;3.15;;;;;;;;;;4989180;28;20031;-83
2023/06/16 10:57:28;;;;;;;;;;;;;;;;;;5001712;28;20030;-86
2023/06/16 11:00:10;;;;;;;9.45;4.15;;;;;;;;;;5006576;28;19914;-83
2023/06/16 11:02:37;;;;;;;5.38;3.58;;;;;;;;;;4984520;28;20037;-77
2023/06/16 11:05:10;;;;;;;8.48;3.42;;;;;;;;;;4993888;28;20026;-82
2023/06/16 11:08:06;;;;;;;7.28;3.30;;;;;;;;;;5001451;28;20393;-82
2023/06/16 11:10:49;;;;;;;8.40;3.53;;;;;;;;;;5000049;28;20512;-83
2023/06/16 11:13:19;;;;;;;6.95;3.25;;;;;;;;;;4994638;28;20019;-82
2023/06/16 11:15:55;;;;;;;4.90;3.08;;;;;;;;;;5004360;28;20033;-84
2023/06/16 11:18:25;;;;;;;6.05;3.58;;;;;;;;;;4999413;28;20030;-85
2023/06/16 11:20:56;;;;;;;5.70;3.10;;;;;;;;;;4994114;28;20026;-86
2023/06/16 11:23:23;;;;;;;4.95;3.00;;;;;;;;;;4996051;28;20116;-84
2023/06/16 11:25:51;;;;;;;5.80;3.85;;;;;;;;;;4993225;28;20070;-84
2023/06/16 11:28:22;;;;;;;5.10;3.28;;;;;;;;;;4995482;28;20102;-80
2023/06/16 11:30:48;;;;;;;4.80;2.80;;;;;;;;;;4979684;28;20034;-80
2023/06/16 11:33:19;;;;;;;5.30;3.20;;;;;;;;;;4989940;28;20129;-80
2023/06/16 11:35:45;;;;;;;5.00;2.80;;;;;;;;;;4997785;28;20371;-80
2023/06/16 11:38:20;;;;;;;5.65;3.55;;;;;;;;;;5001846;28;20023;-81
2023/06/16 11:40:48;;;;;;;6.72;3.17;;;;;;;;;;5007480;28;20038;-86
2023/06/16 11:43:16;;;;;;;6.63;3.92;;;;;;;;;;4995680;28;20084;-77
2023/06/16 11:45:42;;;;;;;5.50;3.13;;;;;;;;;;4998894;28;20587;-78
2023/06/16 11:48:09;;;;;;;5.45;3.95;;;;;;;;;;5000095;28;20046;-86
2023/06/16 11:50:36;;;;;;;7.85;3.35;;;;;;;;;;5006330;28;20034;-85
2023/06/16 11:53:02;;;;;;;4.15;2.63;;;;;;;;;;5002672;28;20054;-82
2023/06/16 11:55:28;;;;;;;4.85;3.20;;;;;;;;;;4997399;28;20474;-81
2023/06/16 11:57:55;;;;;;;4.22;2.70;;;;;;;;;;4993327;28;20022;-81
2023/06/16 12:00:22;;;;;;;5.22;2.95;;;;;;;;;;4996649;28;20035;-80
2023/06/16 12:02:49;;;;;;;4.82;2.75;;;;;;;;;;4995245;28;20357;-80
2023/06/16 12:05:21;;;;;;;5.72;2.80;;;;;;;;;;4992232;28;20526;-80
2023/06/16 12:07:48;;;;;;;5.65;3.50;;;;;;;;;;4990747;28;20054;-80
2023/06/16 12:10:16;;;;;;;6.35;3.53;;;;;;;;;;4990719;28;20082;-82
2023/06/16 12:12:46;;;;;;;4.72;2.85;;;;;;;;;;4988694;28;20027;-81
2023/06/16 12:15:23;;;;;;;5.30;3.58;;;;;;;;;;4987974;28;20098;-81
2023/06/16 12:17:50;;;;;;;6.25;2.90;;;;;;;;;;5024864;28;20142;-81
2023/06/16 12:20:18;;;;;;;8.25;3.50;;;;;;;;;;5088359;28;20386;-82
2023/06/16 12:22:44;;;;;;;7.07;4.13;;;;;;;;;;4989817;28;20029;-79
2023/06/16 12:25:14;;;;;;;4.55;3.20;;;;;;;;;;4991449;28;20034;-80
2023/06/16 12:27:51;;;;;;;5.15;3.22;;;;;;;;;;4995111;28;20041;-82
2023/06/16 12:30:18;;;;;;;4.22;2.72;;;;;;;;;;4993802;28;20117;-80
2023/06/16 12:32:45;;;;;;;5.53;3.50;;;;;;;;;;4996741;28;20130;-80
2023/06/16 12:35:12;;;;;;;4.97;2.65;;;;;;;;;;4992502;28;20712;-81
2023/06/16 12:37:41;;;;;;;7.00;3.08;;;;;;;;;;4989894;28;20088;-78
2023/06/16 12:40:10;;;;;;;6.05;2.70;;;;;;;;;;4988163;28;20061;-80
2023/06/16 12:42:37;;;;;;;8.07;3.42;;;;;;;;;;4989840;28;20114;-82
2023/06/16 12:45:05;;;;;;;5.88;2.95;;;;;;;;;;4989205;28;20022;-79
2023/06/16 12:47:33;;;;;;;4.78;2.25;;;;;;;;;;4988794;28;20030;-79
2023/06/16 12:50:00;;;;;;;5.68;3.42;;;;;;;;;;4987957;28;20029;-80
2023/06/16 12:52:28;;;;;;;5.30;2.92;;;;;;;;;;4986347;28;20034;-79
2023/06/16 12:54:58;;;;;;;7.10;2.75;;;;;;;;;;4986524;28;20038;-79
2023/06/16 12:57:24;;;;;;;5.53;3.33;;;;;;;;;;4986193;28;20516;-80
2023/06/16 12:59:51;;;;;;;8.88;3.67;;;;;;;;;;4986308;28;20040;-79
2023/06/16 13:02:18;;;;;;;6.50;3.38;;;;;;;;;;4987853;28;20022;-78
2023/06/16 13:04:44;;;;;;;5.32;2.55;;;;;;;;;;4986186;28;20031;-77
2023/06/16 13:07:10;;;;;;;8.15;3.75;;;;;;;;;;4998534;28;20091;-79
2023/06/16 13:09:37;;;;;;;4.25;2.90;;;;;;;;;;4988238;28;20033;-78
2023/06/16 13:12:04;;;;;;;4.47;2.80;;;;;;;;;;4988447;28;20030;-80
2023/06/16 13:14:30;;;;;;;9.75;3.67;;;;;;;;;;4991283;28;20466;-79
2023/06/16 13:16:56;;;;;;;5.68;3.15;;;;;;;;;;4989842;28;20022;-79
2023/06/16 13:19:22;;;;;;;5.47;2.90;;;;;;;;;;4995324;28;20038;-80
2023/06/16 13:21:48;;;;;;;3.78;2.70;;;;;;;;;;4987753;28;20161;-79